createdAt,value
2018-06-29T00:01:10.684Z,16.43
2018-06-29T00:03:39.908Z,16.41
2018-06-29T00:06:09.972Z,16.40
2018-06-29T00:08:39.203Z,16.42
2018-06-29T00:11:08.631Z,16.43
2018-06-29T00:13:37.885Z,16.44
2018-06-29T00:16:07.118Z,16.44
2018-06-29T00:18:36.396Z,16.43
2018-06-29T00:21:05.627Z,16.41
2018-06-29T00:23:34.854Z,16.42
2018-06-29T00:26:04.072Z,16.43
2018-06-29T00:28:33.294Z,16.36
2018-06-29T00:31:02.618Z,16.36
2018-06-29T00:33:31.842Z,16.23
2018-06-29T00:36:01.003Z,16.30
2018-06-29T00:38:30.234Z,16.32
2018-06-29T00:40:59.419Z,16.26
2018-06-29T00:43:28.695Z,16.26
2018-06-29T00:45:57.905Z,16.20
2018-06-29T00:48:26.853Z,16.19
2018-06-29T00:50:56.102Z,16.20
2018-06-29T00:53:25.110Z,16.16
2018-06-29T00:55:54.318Z,16.15
2018-06-29T00:58:23.576Z,16.15
2018-06-29T01:00:52.985Z,16.27
2018-06-29T01:03:22.835Z,16.30
2018-06-29T01:05:52.167Z,16.29
2018-06-29T01:08:21.475Z,16.34
2018-06-29T01:10:50.987Z,16.31
2018-06-29T01:13:20.275Z,16.31
2018-06-29T01:15:49.677Z,16.30
2018-06-29T01:18:18.958Z,16.32
2018-06-29T01:20:48.315Z,16.34
2018-06-29T01:23:17.629Z,16.35
2018-06-29T01:25:47.084Z,16.41
2018-06-29T01:28:16.358Z,16.42
2018-06-29T01:30:46.513Z,16.38
2018-06-29T01:33:15.806Z,16.46
2018-06-29T01:35:45.072Z,16.56
2018-06-29T01:38:14.320Z,16.49
2018-06-29T01:40:43.614Z,16.48
2018-06-29T01:43:12.923Z,16.42
2018-06-29T01:45:42.293Z,16.48
2018-06-29T01:48:11.628Z,16.49
2018-06-29T01:50:40.915Z,16.48
2018-06-29T01:53:10.181Z,16.52
2018-06-29T01:55:39.481Z,16.53
2018-06-29T01:58:08.912Z,16.49
2018-06-29T02:00:37.942Z,16.37
2018-06-29T02:03:07.283Z,16.37
2018-06-29T02:05:36.569Z,16.32
2018-06-29T02:08:05.913Z,16.33
2018-06-29T02:10:35.332Z,16.38
2018-06-29T02:13:04.578Z,16.33
2018-06-29T02:15:33.801Z,16.36
2018-06-29T02:18:03.073Z,16.34
2018-06-29T02:20:32.336Z,16.35
2018-06-29T02:23:01.601Z,16.36
2018-06-29T02:25:30.918Z,16.24
2018-06-29T02:28:00.166Z,16.20
2018-06-29T02:30:30.993Z,16.26
2018-06-29T02:33:00.155Z,16.25
2018-06-29T02:35:29.400Z,16.26
2018-06-29T02:37:58.748Z,16.25
2018-06-29T02:40:28.051Z,16.32
2018-06-29T02:42:57.348Z,16.19
2018-06-29T02:45:26.632Z,16.23
2018-06-29T02:47:56.804Z,16.14
2018-06-29T02:50:26.131Z,16.23
2018-06-29T02:52:55.214Z,16.28
2018-06-29T02:55:24.539Z,16.31
2018-06-29T02:57:53.858Z,16.30
2018-06-29T03:00:23.056Z,16.37
2018-06-29T03:02:55.875Z,16.41
2018-06-29T03:05:25.071Z,16.42
2018-06-29T03:07:54.360Z,16.40
2018-06-29T03:10:23.624Z,16.35
2018-06-29T03:12:52.967Z,16.36
2018-06-29T03:15:22.222Z,16.39
2018-06-29T03:17:51.755Z,16.43
2018-06-29T03:20:21.034Z,16.46
2018-06-29T03:22:50.348Z,16.43
2018-06-29T03:25:19.707Z,16.41
2018-06-29T03:27:48.991Z,16.43
2018-06-29T03:30:18.611Z,16.30
2018-06-29T03:32:47.953Z,16.48
2018-06-29T03:35:17.203Z,16.48
2018-06-29T03:37:46.419Z,16.36
2018-06-29T03:40:15.725Z,16.27
2018-06-29T03:42:44.939Z,16.20
2018-06-29T03:45:14.269Z,16.25
2018-06-29T03:47:43.600Z,16.23
2018-06-29T03:50:12.970Z,16.27
2018-06-29T03:52:42.240Z,16.24
2018-06-29T03:55:11.495Z,16.25
2018-06-29T03:57:41.577Z,16.27
2018-06-29T04:00:10.979Z,16.32
2018-06-29T04:02:40.270Z,16.33
2018-06-29T04:05:09.511Z,16.40
2018-06-29T04:07:38.847Z,16.40
2018-06-29T04:10:08.142Z,16.40
2018-06-29T04:12:37.449Z,16.37
2018-06-29T04:15:07.071Z,16.42
2018-06-29T04:17:36.386Z,16.38
2018-06-29T04:20:06.258Z,16.40
2018-06-29T04:22:35.490Z,16.35
2018-06-29T04:25:05.952Z,16.35
2018-06-29T04:27:35.218Z,16.39
2018-06-29T04:30:04.711Z,16.48
2018-06-29T04:32:33.968Z,16.46
2018-06-29T04:35:03.200Z,16.47
2018-06-29T04:37:32.398Z,16.51
2018-06-29T04:40:01.599Z,16.48
2018-06-29T04:42:30.796Z,16.54
2018-06-29T04:45:00.006Z,16.41
2018-06-29T04:47:29.268Z,16.38
2018-06-29T04:49:58.442Z,16.44
2018-06-29T04:52:27.695Z,16.44
2018-06-29T04:54:56.906Z,16.54
2018-06-29T04:57:26.070Z,16.48
2018-06-29T04:59:55.305Z,16.44
2018-06-29T05:02:24.516Z,16.48
2018-06-29T05:04:53.765Z,16.55
2018-06-29T05:07:23.013Z,16.60
2018-06-29T05:09:52.268Z,16.72
2018-06-29T05:12:21.673Z,16.88
2018-06-29T05:14:51.943Z,16.89
2018-06-29T05:17:21.160Z,16.93
2018-06-29T05:19:50.510Z,16.92
2018-06-29T05:22:19.793Z,17.09
2018-06-29T05:24:49.163Z,17.12
2018-06-29T05:27:18.394Z,17.11
2018-06-29T05:29:47.638Z,17.25
2018-06-29T05:32:16.867Z,17.37
2018-06-29T05:34:46.116Z,17.40
2018-06-29T05:37:15.440Z,17.57
2018-06-29T05:39:44.722Z,17.76
2018-06-29T05:42:14.038Z,18.10
2018-06-29T05:44:43.359Z,18.19
2018-06-29T05:47:12.694Z,18.12
2018-06-29T05:49:42.020Z,18.13
2018-06-29T05:52:11.296Z,17.99
2018-06-29T05:54:40.592Z,18.09
2018-06-29T05:57:09.884Z,18.10
2018-06-29T05:59:39.160Z,17.93
2018-06-29T06:02:08.765Z,17.99
2018-06-29T06:04:37.828Z,17.91
2018-06-29T06:07:07.199Z,17.71
2018-06-29T06:09:36.494Z,17.82
2018-06-29T06:12:05.894Z,17.96
2018-06-29T06:14:35.276Z,18.08
2018-06-29T06:17:04.342Z,18.16
2018-06-29T06:19:50.499Z,18.13
2018-06-29T06:22:19.824Z,18.06
2018-06-29T06:24:49.126Z,18.03
2018-06-29T06:27:18.400Z,18.03
2018-06-29T06:29:47.729Z,18.05
2018-06-29T06:32:17.113Z,18.15
2018-06-29T06:34:46.551Z,18.20
2018-06-29T06:37:15.905Z,18.42
2018-06-29T06:39:45.214Z,18.57
2018-06-29T06:42:14.523Z,18.73
2018-06-29T06:44:43.827Z,19.06
2018-06-29T06:47:13.129Z,19.44
2018-06-29T06:49:42.400Z,19.59
2018-06-29T06:52:11.689Z,19.98
2018-06-29T06:54:40.954Z,20.25
2018-06-29T06:57:10.269Z,20.75
2018-06-29T06:59:39.546Z,20.16
2018-06-29T07:02:08.884Z,20.32
2018-06-29T07:04:38.479Z,20.67
2018-06-29T07:07:07.988Z,20.88
2018-06-29T07:09:37.370Z,20.78
2018-06-29T07:12:06.471Z,20.51
2018-06-29T07:14:35.777Z,20.68
2018-06-29T07:17:05.265Z,20.96
2018-06-29T07:19:34.503Z,20.96
2018-06-29T07:22:03.828Z,20.13
2018-06-29T07:24:33.141Z,20.53
2018-06-29T07:27:02.350Z,20.61
2018-06-29T07:29:31.549Z,20.39
2018-06-29T07:32:01.011Z,20.76
2018-06-29T07:34:30.268Z,20.86
2018-06-29T07:36:59.590Z,21.21
2018-06-29T07:39:28.803Z,21.22
2018-06-29T07:41:58.063Z,21.48
2018-06-29T07:44:27.393Z,21.61
2018-06-29T07:46:56.709Z,21.54
2018-06-29T07:49:25.967Z,21.41
2018-06-29T07:51:55.404Z,21.39
2018-06-29T07:54:24.748Z,21.46
2018-06-29T07:56:54.099Z,20.73
2018-06-29T07:59:23.359Z,20.75
2018-06-29T08:01:52.663Z,20.89
2018-06-29T08:04:21.961Z,20.70
2018-06-29T08:06:51.323Z,21.11
2018-06-29T08:09:20.383Z,21.60
2018-06-29T08:11:49.811Z,21.78
2018-06-29T08:14:19.098Z,21.60
2018-06-29T08:16:48.415Z,22.03
2018-06-29T08:19:18.353Z,21.71
2018-06-29T08:21:47.673Z,21.92
2018-06-29T08:24:17.030Z,21.66
2018-06-29T08:26:46.368Z,21.80
2018-06-29T08:29:15.680Z,21.79
2018-06-29T08:31:44.898Z,21.94
2018-06-29T08:34:14.229Z,22.29
2018-06-29T08:36:43.572Z,22.25
2018-06-29T08:39:12.945Z,22.06
2018-06-29T08:41:43.223Z,21.76
2018-06-29T08:44:12.595Z,21.94
2018-06-29T08:46:41.992Z,21.84
2018-06-29T08:49:11.316Z,21.85
2018-06-29T08:51:40.700Z,22.03
2018-06-29T08:54:09.978Z,21.83
2018-06-29T08:56:39.316Z,21.89
2018-06-29T08:59:08.707Z,21.84
2018-06-29T09:01:37.968Z,21.86
2018-06-29T09:04:07.244Z,21.49
2018-06-29T09:06:36.506Z,21.60
2018-06-29T09:09:08.909Z,21.61
2018-06-29T09:11:38.357Z,21.31
2018-06-29T09:14:07.862Z,21.35
2018-06-29T09:16:36.974Z,21.42
2018-06-29T09:19:06.490Z,21.62
2018-06-29T09:21:35.854Z,21.77
2018-06-29T09:24:05.396Z,22.30
2018-06-29T09:26:34.694Z,22.05
2018-06-29T09:29:04.098Z,22.76
2018-06-29T09:31:33.419Z,23.02
2018-06-29T09:34:02.770Z,23.31
2018-06-29T09:36:32.141Z,23.21
2018-06-29T09:39:01.498Z,22.83
2018-06-29T09:41:30.831Z,22.83
2018-06-29T09:43:59.865Z,22.77
2018-06-29T09:46:29.263Z,22.99
2018-06-29T09:48:58.557Z,22.77
2018-06-29T09:51:27.869Z,23.48
2018-06-29T09:53:57.317Z,23.46
2018-06-29T09:56:26.568Z,23.56
2018-06-29T09:58:56.026Z,23.28
2018-06-29T10:01:25.647Z,23.50
2018-06-29T10:03:54.922Z,23.42
2018-06-29T10:06:24.447Z,23.31
2018-06-29T10:08:53.787Z,23.69
2018-06-29T10:11:23.309Z,23.65
2018-06-29T10:13:52.446Z,23.28
2018-06-29T10:16:22.138Z,23.42
2018-06-29T10:18:51.571Z,22.98
2018-06-29T10:21:21.257Z,23.20
2018-06-29T10:23:50.630Z,23.38
2018-06-29T10:26:20.141Z,23.57
2018-06-29T10:28:49.591Z,23.78
2018-06-29T10:31:18.897Z,23.59
2018-06-29T10:33:48.809Z,23.77
2018-06-29T10:36:18.221Z,23.71
2018-06-29T10:38:47.641Z,24.37
2018-06-29T10:41:16.919Z,24.03
2018-06-29T10:43:46.216Z,23.96
2018-06-29T10:46:15.520Z,24.32
2018-06-29T10:48:44.835Z,24.75
2018-06-29T10:51:14.250Z,24.73
2018-06-29T10:53:43.581Z,24.57
2018-06-29T10:56:12.942Z,24.98
2018-06-29T10:58:42.380Z,24.90
2018-06-29T11:01:11.616Z,25.07
2018-06-29T11:03:40.971Z,25.01
2018-06-29T11:06:10.275Z,25.49
2018-06-29T11:08:39.587Z,25.20
2018-06-29T11:11:08.934Z,25.19
2018-06-29T11:13:38.276Z,24.89
2018-06-29T11:16:07.751Z,25.46
2018-06-29T11:18:36.998Z,25.97
2018-06-29T11:21:06.235Z,25.32
2018-06-29T11:23:35.467Z,25.68
2018-06-29T11:26:04.757Z,25.87
2018-06-29T11:28:34.081Z,25.60
2018-06-29T11:31:03.394Z,25.72
2018-06-29T11:33:32.630Z,25.64
2018-06-29T11:36:01.907Z,25.55
2018-06-29T11:38:31.107Z,25.21
2018-06-29T11:41:00.343Z,25.78
2018-06-29T11:43:29.329Z,26.00
2018-06-29T11:45:58.595Z,25.96
2018-06-29T11:48:27.892Z,25.81
2018-06-29T11:50:57.122Z,25.93
2018-06-29T11:53:26.383Z,26.42
2018-06-29T11:55:55.679Z,26.48
2018-06-29T11:58:25.096Z,26.27
2018-06-29T12:00:54.460Z,26.95
2018-06-29T12:03:23.944Z,26.51
2018-06-29T12:05:53.420Z,26.77
2018-06-29T12:08:22.774Z,26.48
2018-06-29T12:10:52.187Z,26.56
2018-06-29T12:13:21.539Z,26.16
2018-06-29T12:15:50.965Z,26.25
2018-06-29T12:18:20.394Z,26.76
2018-06-29T12:20:49.718Z,27.31
2018-06-29T12:23:19.001Z,27.29
2018-06-29T12:25:48.174Z,26.58
2018-06-29T12:28:17.420Z,27.18
2018-06-29T12:30:46.659Z,26.60
2018-06-29T12:33:16.026Z,26.96
2018-06-29T12:35:45.246Z,26.59
2018-06-29T12:38:14.566Z,26.72
2018-06-29T12:40:43.946Z,27.04
2018-06-29T12:43:13.626Z,28.01
2018-06-29T12:45:42.748Z,27.24
2018-06-29T12:48:11.994Z,27.11
2018-06-29T12:50:41.214Z,26.52
2018-06-29T12:53:10.478Z,27.08
2018-06-29T12:55:39.934Z,27.76
2018-06-29T12:58:09.211Z,28.25
2018-06-29T13:00:38.450Z,28.10
2018-06-29T13:03:07.847Z,27.89
2018-06-29T13:05:37.151Z,28.22
2018-06-29T13:08:06.440Z,27.97
2018-06-29T13:10:36.933Z,27.49
2018-06-29T13:13:06.212Z,27.25
2018-06-29T13:15:35.407Z,26.94
2018-06-29T13:18:05.180Z,26.87
2018-06-29T13:20:34.395Z,26.77
2018-06-29T13:23:03.686Z,26.92
2018-06-29T13:25:33.175Z,26.85
2018-06-29T13:28:02.474Z,27.24
2018-06-29T13:30:31.792Z,27.42
2018-06-29T13:33:01.917Z,27.09
2018-06-29T13:35:31.298Z,27.75
2018-06-29T13:38:00.618Z,28.23
2018-06-29T13:40:29.628Z,27.49
2018-06-29T13:42:59.011Z,28.43
2018-06-29T13:45:28.567Z,28.54
2018-06-29T13:47:57.977Z,28.53
2018-06-29T13:50:27.390Z,28.34
2018-06-29T13:52:56.801Z,28.32
2018-06-29T13:55:26.023Z,28.59
2018-06-29T13:57:55.514Z,28.01
2018-06-29T14:00:25.178Z,27.84
2018-06-29T14:02:54.507Z,28.66
2018-06-29T14:05:23.843Z,28.61
2018-06-29T14:07:52.921Z,28.39
2018-06-29T14:10:22.207Z,28.10
2018-06-29T14:12:51.471Z,27.58
2018-06-29T14:15:21.147Z,27.27
2018-06-29T14:17:50.389Z,27.53
2018-06-29T14:20:19.666Z,27.81
2018-06-29T14:22:49.181Z,28.44
2018-06-29T14:25:18.493Z,28.38
2018-06-29T14:27:47.703Z,28.77
2018-06-29T14:30:16.914Z,28.33
2018-06-29T14:32:46.141Z,28.17
2018-06-29T14:35:15.411Z,28.35
2018-06-29T14:37:44.642Z,28.79
2018-06-29T14:40:13.961Z,28.41
2018-06-29T14:42:43.231Z,29.16
2018-06-29T14:45:12.487Z,29.15
2018-06-29T14:47:41.779Z,28.41
2018-06-29T14:50:11.091Z,27.81
2018-06-29T14:52:40.279Z,27.70
2018-06-29T14:55:09.511Z,27.58
2018-06-29T14:57:38.726Z,27.24
2018-06-29T15:00:10.197Z,27.26
2018-06-29T15:02:39.851Z,27.38
2018-06-29T15:05:09.480Z,28.23
2018-06-29T15:07:38.822Z,28.40
2018-06-29T15:10:08.445Z,28.95
2018-06-29T15:12:37.674Z,29.54
2018-06-29T15:15:06.907Z,29.24
2018-06-29T15:17:36.231Z,29.39
2018-06-29T15:20:06.787Z,28.62
2018-06-29T15:22:36.155Z,28.13
2018-06-29T15:25:05.546Z,28.14
2018-06-29T15:27:35.250Z,28.16
2018-06-29T15:30:05.257Z,27.99
2018-06-29T15:32:34.678Z,27.76
2018-06-29T15:35:03.994Z,27.66
2018-06-29T15:37:33.247Z,27.39
2018-06-29T15:40:02.459Z,27.45
2018-06-29T15:42:31.655Z,27.36
2018-06-29T15:45:00.847Z,27.46
2018-06-29T15:47:29.795Z,28.13
2018-06-29T15:49:58.998Z,28.82
2018-06-29T15:52:28.225Z,28.67
2018-06-29T15:54:57.413Z,29.08
2018-06-29T15:57:26.608Z,29.11
2018-06-29T15:59:55.831Z,29.04
2018-06-29T16:02:25.105Z,29.29
2018-06-29T16:04:54.459Z,29.02
2018-06-29T16:07:23.700Z,28.84
2018-06-29T16:09:53.002Z,28.75
2018-06-29T16:12:22.339Z,28.40
2018-06-29T16:14:51.627Z,28.44
2018-06-29T16:17:20.898Z,28.40
2018-06-29T16:19:50.174Z,27.94
2018-06-29T16:22:19.158Z,28.04
2018-06-29T16:24:48.367Z,28.13
2018-06-29T16:27:17.622Z,27.97
2018-06-29T16:29:46.859Z,27.66
2018-06-29T16:32:16.076Z,27.87
2018-06-29T16:34:45.263Z,27.40
2018-06-29T16:37:14.491Z,27.51
2018-06-29T16:39:43.715Z,27.71
2018-06-29T16:42:12.955Z,27.65
2018-06-29T16:44:42.242Z,27.58
2018-06-29T16:47:11.404Z,27.52
2018-06-29T16:49:40.583Z,28.36
2018-06-29T16:52:09.848Z,29.26
2018-06-29T16:54:39.062Z,30.34
2018-06-29T16:57:08.327Z,30.64
2018-06-29T16:59:37.556Z,30.49
2018-06-29T17:02:07.058Z,30.92
2018-06-29T17:04:36.253Z,31.43
2018-06-29T17:07:05.530Z,31.04
2018-06-29T17:09:34.861Z,31.44
2018-06-29T17:12:04.173Z,31.54
2018-06-29T17:14:33.380Z,31.44
2018-06-29T17:17:02.681Z,31.18
2018-06-29T17:19:31.636Z,31.76
2018-06-29T17:22:01.041Z,30.54
2018-06-29T17:24:30.011Z,28.52
2018-06-29T17:26:59.307Z,28.40
2018-06-29T17:29:28.267Z,28.11
2018-06-29T17:31:57.615Z,27.86
2018-06-29T17:34:26.904Z,27.96
2018-06-29T17:36:56.236Z,27.62
2018-06-29T17:39:25.550Z,27.62
2018-06-29T17:41:54.595Z,27.56
2018-06-29T17:44:23.867Z,27.15
2018-06-29T17:46:53.092Z,26.94
2018-06-29T17:49:22.387Z,26.81
2018-06-29T17:51:51.646Z,26.75
2018-06-29T17:54:20.861Z,26.65
2018-06-29T17:56:51.183Z,26.59
2018-06-29T17:59:20.355Z,26.38
2018-06-29T18:01:49.697Z,26.43
2018-06-29T18:04:19.608Z,26.38
2018-06-29T18:06:49.155Z,26.39
2018-06-29T18:09:18.462Z,26.51
2018-06-29T18:11:47.783Z,26.37
2018-06-29T18:14:17.048Z,26.33
2018-06-29T18:16:46.306Z,26.20
2018-06-29T18:19:15.625Z,26.37
2018-06-29T18:21:44.646Z,26.87
2018-06-29T18:24:13.915Z,26.98
2018-06-29T18:26:43.227Z,27.10
2018-06-29T18:29:12.508Z,26.51
2018-06-29T18:31:42.102Z,26.17
2018-06-29T18:34:11.309Z,25.95
2018-06-29T18:36:40.573Z,25.86
2018-06-29T18:39:11.058Z,25.68
2018-06-29T18:41:40.051Z,25.54
2018-06-29T18:44:09.289Z,25.59
2018-06-29T18:46:38.612Z,25.41
2018-06-29T18:49:08.129Z,25.30
2018-06-29T18:51:38.008Z,25.25
2018-06-29T18:54:07.565Z,25.21
2018-06-29T18:56:36.834Z,25.10
2018-06-29T18:59:06.066Z,24.94
2018-06-29T19:08:34.552Z,24.42
2018-06-29T19:11:03.877Z,24.35
2018-06-29T19:13:33.074Z,24.29
2018-06-29T19:16:02.354Z,24.18
2018-06-29T19:18:32.109Z,24.04
2018-06-29T19:21:01.265Z,23.86
2018-06-29T19:23:30.495Z,23.67
2018-06-29T19:25:59.708Z,23.52
2018-06-29T19:28:28.947Z,23.37
2018-06-29T19:30:58.299Z,23.28
2018-06-29T19:33:27.533Z,23.15
2018-06-29T19:35:56.932Z,23.04
2018-06-29T19:38:26.142Z,22.91
2018-06-29T19:40:55.486Z,22.79
2018-06-29T19:43:24.877Z,22.67
2018-06-29T19:45:54.139Z,22.56
2018-06-29T19:48:23.456Z,22.42
2018-06-29T19:50:52.898Z,22.26
2018-06-29T19:53:22.187Z,22.15
2018-06-29T19:55:51.196Z,22.02
2018-06-29T19:58:20.547Z,21.93
2018-06-29T20:00:49.616Z,21.81
2018-06-29T20:03:18.855Z,21.70
2018-06-29T20:05:48.141Z,21.73
2018-06-29T20:08:17.024Z,21.73
2018-06-29T20:10:46.286Z,21.62
2018-06-29T20:13:15.305Z,21.53
2018-06-29T20:15:44.560Z,21.44
2018-06-29T20:18:13.891Z,21.35
2018-06-29T20:20:43.384Z,21.30
2018-06-29T20:23:12.610Z,21.22
2018-06-29T20:25:41.976Z,21.15
2018-06-29T20:28:11.226Z,21.15
2018-06-29T20:30:40.563Z,21.11
2018-06-29T20:33:09.725Z,21.09
2018-06-29T20:35:39.004Z,21.04
2018-06-29T20:38:08.379Z,20.96
2018-06-29T20:40:37.741Z,20.95
2018-06-29T20:43:08.518Z,20.93
2018-06-29T20:45:37.815Z,20.78
2018-06-29T20:48:08.449Z,20.73
2018-06-29T20:50:38.428Z,20.62
2018-06-29T20:53:08.856Z,20.64
2018-06-29T20:55:38.236Z,20.59
2018-06-29T20:58:07.570Z,20.52
2018-06-29T21:00:36.919Z,20.45
2018-06-29T21:03:06.291Z,20.41
2018-06-29T21:05:35.671Z,20.37
2018-06-29T21:08:05.743Z,20.27
2018-06-29T21:10:35.024Z,20.21
2018-06-29T21:13:04.205Z,20.18
2018-06-29T21:15:33.517Z,20.18
2018-06-29T21:18:02.865Z,20.11
2018-06-29T21:20:32.163Z,20.09
2018-06-29T21:23:01.548Z,20.01
2018-06-29T21:25:30.831Z,19.92
2018-06-29T21:28:00.109Z,19.83
2018-06-29T21:30:29.369Z,19.82
2018-06-29T21:32:58.613Z,19.76
2018-06-29T21:35:27.922Z,19.67
2018-06-29T21:37:57.256Z,19.66
2018-06-29T21:40:26.530Z,19.67
2018-06-29T21:42:55.838Z,19.58
2018-06-29T21:45:25.106Z,19.52
2018-06-29T21:47:54.470Z,19.50
2018-06-29T21:50:23.808Z,19.43
2018-06-29T21:52:53.208Z,19.41
2018-06-29T21:55:22.692Z,19.34
2018-06-29T21:57:52.049Z,19.26
2018-06-29T22:00:21.383Z,19.26
2018-06-29T22:02:50.722Z,19.19
2018-06-29T22:05:20.039Z,19.13
2018-06-29T22:07:49.380Z,19.15
2018-06-29T22:10:18.702Z,19.15
2018-06-29T22:12:47.976Z,19.12
2018-06-29T22:15:22.698Z,19.00
2018-06-29T22:17:52.294Z,18.92
2018-06-29T22:20:22.154Z,18.87
2018-06-29T22:22:51.543Z,18.83
2018-06-29T22:25:21.736Z,18.75
2018-06-29T22:27:51.194Z,18.75
2018-06-29T22:30:21.142Z,18.70
2018-06-29T22:32:50.203Z,18.64
2018-06-29T22:35:19.516Z,18.65
2018-06-29T22:37:48.797Z,18.62
2018-06-29T22:40:18.187Z,18.58
2018-06-29T22:42:47.519Z,18.55
2018-06-29T22:45:16.735Z,18.49
2018-06-29T22:47:45.953Z,18.51
2018-06-29T22:50:15.183Z,18.51
2018-06-29T22:52:44.383Z,18.56
2018-06-29T22:55:13.628Z,18.51
2018-06-29T22:57:42.888Z,18.46
2018-06-29T23:00:12.192Z,18.46
2018-06-29T23:02:41.371Z,18.40
2018-06-29T23:05:10.572Z,18.38
2018-06-29T23:07:39.773Z,18.33
2018-06-29T23:10:09.029Z,18.24
2018-06-29T23:12:38.073Z,18.22
2018-06-29T23:15:07.371Z,18.17
2018-06-29T23:17:36.618Z,18.16
2018-06-29T23:20:05.990Z,18.16
2018-06-29T23:22:35.250Z,18.08
2018-06-29T23:25:04.526Z,18.04
2018-06-29T23:27:33.744Z,18.07
2018-06-29T23:30:03.014Z,18.03
2018-06-29T23:32:32.275Z,17.97
2018-06-29T23:35:01.573Z,17.90
2018-06-29T23:37:30.763Z,17.87
2018-06-29T23:40:00.034Z,17.89
2018-06-29T23:42:29.283Z,17.87
2018-06-29T23:44:58.503Z,17.79
2018-06-29T23:47:27.700Z,17.84
2018-06-29T23:49:56.950Z,17.82
2018-06-29T23:52:26.272Z,17.80
2018-06-29T23:54:55.521Z,17.75
2018-06-29T23:57:24.746Z,17.71
2018-06-29T23:59:54.001Z,17.67
